createdAt,value
2018-05-09T00:00:49.970Z,99.99
2018-05-09T00:01:49.838Z,99.99
2018-05-09T00:02:49.822Z,99.99
2018-05-09T00:03:49.802Z,99.99
2018-05-09T00:04:49.799Z,99.99
2018-05-09T00:05:49.947Z,99.99
2018-05-09T00:06:49.740Z,99.99
2018-05-09T00:07:49.742Z,99.99
2018-05-09T00:08:49.688Z,99.99
2018-05-09T00:09:49.674Z,99.99
2018-05-09T00:10:50.235Z,99.99
2018-05-09T00:11:49.626Z,99.99
2018-05-09T00:12:49.570Z,99.99
2018-05-09T00:13:49.540Z,99.99
2018-05-09T00:14:49.613Z,99.99
2018-05-09T00:15:49.620Z,99.99
2018-05-09T00:16:49.489Z,99.99
2018-05-09T00:17:49.973Z,99.99
2018-05-09T00:18:49.446Z,99.99
2018-05-09T00:19:49.437Z,99.99
2018-05-09T00:20:49.414Z,99.99
2018-05-09T00:21:49.439Z,99.99
2018-05-09T00:22:49.345Z,99.99
2018-05-09T00:23:49.359Z,99.99
2018-05-09T00:24:49.283Z,99.99
2018-05-09T00:25:49.255Z,99.99
2018-05-09T00:26:49.341Z,99.99
2018-05-09T00:27:49.220Z,98.35
2018-05-09T00:28:49.188Z,99.51
2018-05-09T00:29:49.162Z,99.99
2018-05-09T00:30:49.159Z,99.99
2018-05-09T00:31:49.171Z,99.41
2018-05-09T00:32:49.204Z,99.80
2018-05-09T00:33:49.057Z,98.05
2018-05-09T00:34:49.065Z,99.80
2018-05-09T00:35:49.032Z,98.44
2018-05-09T00:36:49.011Z,98.88
2018-05-09T00:37:49.078Z,96.94
2018-05-09T00:38:48.945Z,97.42
2018-05-09T00:39:48.925Z,96.74
2018-05-09T00:40:48.924Z,96.26
2018-05-09T00:41:48.884Z,95.87
2018-05-09T00:42:48.946Z,95.57
2018-05-09T00:43:48.825Z,94.90
2018-05-09T00:44:48.806Z,92.86
2018-05-09T00:45:48.777Z,93.93
2018-05-09T00:46:49.277Z,93.35
2018-05-09T00:47:48.820Z,93.73
2018-05-09T00:48:48.716Z,91.99
2018-05-09T00:49:48.686Z,93.63
2018-05-09T00:50:48.659Z,93.25
2018-05-09T00:51:48.622Z,93.93
2018-05-09T00:52:49.256Z,94.70
2018-05-09T00:53:48.575Z,93.93
2018-05-09T00:54:49.085Z,91.21
2018-05-09T00:55:48.523Z,90.92
2018-05-09T00:56:48.493Z,89.76
2018-05-09T00:57:48.473Z,91.31
2018-05-09T00:58:48.571Z,91.11
2018-05-09T00:59:48.509Z,93.93
2018-05-09T01:00:48.986Z,98.39
2018-05-09T01:01:48.930Z,99.99
2018-05-09T01:02:48.361Z,99.99
2018-05-09T01:03:48.834Z,99.99
2018-05-09T01:04:48.452Z,99.99
2018-05-09T01:05:48.277Z,99.99
2018-05-09T01:06:48.847Z,99.99
2018-05-09T01:07:48.252Z,99.99
2018-05-09T01:08:48.759Z,99.99
2018-05-09T01:09:48.755Z,99.99
2018-05-09T01:10:48.302Z,99.99
2018-05-09T01:11:48.655Z,99.99
2018-05-09T01:12:48.129Z,99.99
2018-05-09T01:13:48.090Z,99.99
2018-05-09T01:14:48.076Z,99.99
2018-05-09T01:15:48.655Z,99.99
2018-05-09T01:16:48.612Z,99.99
2018-05-09T01:17:47.979Z,99.99
2018-05-09T01:18:47.948Z,99.99
2018-05-09T01:19:47.931Z,99.99
2018-05-09T01:20:48.023Z,99.99
2018-05-09T01:21:47.907Z,99.99
2018-05-09T01:22:48.412Z,99.99
2018-05-09T01:23:48.381Z,99.99
2018-05-09T01:24:47.801Z,99.99
2018-05-09T01:25:48.103Z,99.99
2018-05-09T01:26:47.828Z,95.29
2018-05-09T01:27:47.738Z,91.85
2018-05-09T01:28:47.725Z,89.42
2018-05-09T01:29:47.696Z,85.83
2018-05-09T01:30:48.298Z,79.97
2018-05-09T01:31:47.628Z,77.84
2018-05-09T01:32:47.598Z,75.81
2018-05-09T01:33:47.577Z,70.54
2018-05-09T01:34:47.560Z,63.56
2018-05-09T01:35:47.618Z,64.34
2018-05-09T01:36:47.494Z,63.75
2018-05-09T01:37:48.002Z,57.36
2018-05-09T01:38:47.482Z,52.49
2018-05-09T01:39:47.433Z,51.81
2018-05-09T01:40:47.404Z,51.59
2018-05-09T01:41:47.496Z,51.01
2018-05-09T01:42:47.341Z,48.39
2018-05-09T01:43:47.346Z,48.59
2018-05-09T01:44:47.803Z,44.04
2018-05-09T01:45:47.805Z,40.84
2018-05-09T01:46:47.303Z,40.36
2018-05-09T01:47:47.323Z,38.53
2018-05-09T01:48:47.706Z,39.59
2018-05-09T01:49:47.166Z,39.20
2018-05-09T01:50:47.669Z,39.97
2018-05-09T01:51:47.115Z,41.82
2018-05-09T01:52:47.193Z,41.91
2018-05-09T01:53:48.021Z,41.04
2018-05-09T01:54:47.599Z,38.71
2018-05-09T01:55:47.025Z,37.73
2018-05-09T01:56:46.999Z,38.99
2018-05-09T01:57:47.956Z,38.31
2018-05-09T01:58:47.472Z,37.34
2018-05-09T01:59:46.927Z,36.28
2018-05-09T02:00:47.438Z,35.80
2018-05-09T02:01:46.888Z,35.60
2018-05-09T02:02:47.401Z,35.31
2018-05-09T02:03:46.780Z,34.63
2018-05-09T02:04:46.786Z,34.34
2018-05-09T02:05:47.240Z,34.44
2018-05-09T02:06:46.755Z,36.08
2018-05-09T02:07:47.357Z,36.86
2018-05-09T02:08:46.665Z,36.28
2018-05-09T02:09:46.641Z,35.99
2018-05-09T02:10:46.643Z,35.99
2018-05-09T02:11:46.611Z,34.54
2018-05-09T02:12:46.696Z,33.86
2018-05-09T02:13:47.108Z,33.95
2018-05-09T02:14:46.964Z,34.05
2018-05-09T02:15:47.120Z,32.51
2018-05-09T02:16:47.015Z,31.83
2018-05-09T02:17:46.474Z,31.34
2018-05-09T02:18:46.519Z,31.34
2018-05-09T02:19:46.410Z,31.25
2018-05-09T02:20:46.365Z,30.86
2018-05-09T02:21:46.349Z,30.28
2018-05-09T02:22:46.321Z,29.80
2018-05-09T02:23:46.869Z,30.10
2018-05-09T02:24:47.102Z,30.86
2018-05-09T02:25:46.360Z,32.12
2018-05-09T02:26:46.288Z,35.41
2018-05-09T02:27:46.182Z,33.47
2018-05-09T02:28:46.173Z,31.83
2018-05-09T02:29:46.241Z,32.51
2018-05-09T02:30:46.084Z,32.99
2018-05-09T02:31:46.629Z,32.51
2018-05-09T02:32:46.051Z,31.73
2018-05-09T02:33:46.070Z,31.63
2018-05-09T02:34:46.641Z,30.96
2018-05-09T02:35:45.968Z,30.08
2018-05-09T02:36:46.512Z,30.28
2018-05-09T02:37:47.185Z,30.08
2018-05-09T02:38:46.411Z,31.05
2018-05-09T02:39:46.027Z,30.86
2018-05-09T02:40:45.886Z,30.18
2018-05-09T02:41:46.476Z,30.28
2018-05-09T02:42:45.940Z,28.64
2018-05-09T02:43:46.378Z,27.86
2018-05-09T02:44:46.496Z,27.67
2018-05-09T02:45:45.712Z,27.09
2018-05-09T02:46:46.224Z,27.09
2018-05-09T02:47:46.103Z,25.63
2018-05-09T02:48:46.151Z,25.73
2018-05-09T02:49:45.707Z,25.63
2018-05-09T02:50:45.572Z,25.24
2018-05-09T02:51:46.096Z,23.90
2018-05-09T02:52:45.519Z,23.60
2018-05-09T02:53:46.056Z,23.50
2018-05-09T02:54:45.478Z,22.83
2018-05-09T02:55:45.539Z,23.02
2018-05-09T02:56:45.429Z,22.92
2018-05-09T02:57:45.375Z,22.64
2018-05-09T02:58:45.343Z,21.86
2018-05-09T02:59:45.327Z,21.86
2018-05-09T03:00:45.310Z,21.96
2018-05-09T03:01:45.457Z,21.96
2018-05-09T03:02:45.297Z,21.77
2018-05-09T03:03:45.304Z,21.96
2018-05-09T03:04:45.212Z,21.86
2018-05-09T03:05:45.181Z,21.19
2018-05-09T03:06:45.255Z,21.86
2018-05-09T03:07:45.119Z,22.34
2018-05-09T03:08:45.099Z,21.57
2018-05-09T03:09:45.071Z,21.86
2018-05-09T03:10:45.029Z,21.28
2018-05-09T03:11:45.120Z,21.77
2018-05-09T03:12:44.984Z,21.77
2018-05-09T03:13:44.958Z,21.77
2018-05-09T03:14:44.933Z,20.89
2018-05-09T03:15:44.912Z,21.48
2018-05-09T03:16:45.492Z,21.38
2018-05-09T03:17:44.847Z,20.80
2018-05-09T03:18:44.839Z,20.89
2018-05-09T03:19:44.796Z,21.67
2018-05-09T03:20:44.780Z,21.96
2018-05-09T03:21:44.873Z,21.86
2018-05-09T03:22:44.728Z,21.96
2018-05-09T03:23:44.696Z,22.16
2018-05-09T03:24:44.693Z,22.94
2018-05-09T03:25:44.659Z,23.23
2018-05-09T03:26:44.757Z,25.36
2018-05-09T03:27:44.565Z,26.04
2018-05-09T03:28:44.552Z,27.00
2018-05-09T03:29:44.593Z,25.95
2018-05-09T03:30:44.541Z,26.04
2018-05-09T03:31:44.484Z,27.10
2018-05-09T03:32:44.671Z,27.00
2018-05-09T03:33:44.417Z,26.81
2018-05-09T03:34:44.414Z,25.84
2018-05-09T03:35:44.380Z,24.68
2018-05-09T03:36:44.354Z,23.91
2018-05-09T03:37:44.332Z,23.72
2018-05-09T03:38:44.381Z,22.84
2018-05-09T03:39:44.257Z,22.85
2018-05-09T03:40:44.236Z,22.37
2018-05-09T03:41:44.202Z,21.39
2018-05-09T03:42:44.201Z,21.50
2018-05-09T03:43:44.251Z,21.69
2018-05-09T03:44:44.150Z,21.79
2018-05-09T03:45:44.107Z,21.97
2018-05-09T03:46:44.609Z,21.30
2018-05-09T03:47:44.063Z,20.82
2018-05-09T03:48:44.128Z,20.82
2018-05-09T03:49:43.982Z,21.40
2018-05-09T03:50:43.984Z,22.95
2018-05-09T03:51:43.934Z,22.95
2018-05-09T03:52:43.926Z,22.75
2018-05-09T03:53:43.999Z,22.47
2018-05-09T03:54:43.885Z,22.75
2018-05-09T03:55:43.845Z,22.27
2018-05-09T03:56:43.867Z,22.75
2018-05-09T03:57:43.782Z,23.63
2018-05-09T03:58:43.861Z,22.66
2018-05-09T03:59:43.730Z,24.01
2018-05-09T04:00:43.700Z,23.63
2018-05-09T04:01:43.664Z,23.05
2018-05-09T04:02:43.713Z,24.11
2018-05-09T04:03:43.689Z,25.56
2018-05-09T04:04:43.719Z,24.69
2018-05-09T04:05:43.555Z,24.11
2018-05-09T04:06:43.553Z,24.79
2018-05-09T04:07:43.529Z,27.31
2018-05-09T04:08:43.494Z,26.90
2018-05-09T04:09:43.457Z,28.55
2018-05-09T04:10:43.538Z,31.46
2018-05-09T04:11:43.423Z,30.49
2018-05-09T04:12:43.404Z,30.68
2018-05-09T04:13:43.640Z,30.20
2018-05-09T04:14:43.375Z,27.49
2018-05-09T04:15:43.322Z,27.39
2018-05-09T04:16:43.390Z,27.49
2018-05-09T04:17:43.250Z,28.45
2018-05-09T04:18:43.234Z,27.29
2018-05-09T04:19:43.214Z,27.20
2018-05-09T04:20:43.198Z,28.36
2018-05-09T04:21:43.241Z,27.39
2018-05-09T04:22:43.109Z,28.26
2018-05-09T04:23:43.089Z,27.10
2018-05-09T04:24:43.063Z,26.81
2018-05-09T04:25:43.038Z,27.00
2018-05-09T04:26:43.132Z,26.32
2018-05-09T04:27:42.982Z,26.42
2018-05-09T04:28:42.973Z,25.84
2018-05-09T04:29:42.937Z,25.46
2018-05-09T04:30:42.914Z,25.74
2018-05-09T04:31:42.995Z,25.46
2018-05-09T04:32:42.870Z,25.26
2018-05-09T04:33:42.821Z,24.68
2018-05-09T04:34:42.810Z,24.58
2018-05-09T04:35:42.789Z,23.52
2018-05-09T04:36:42.852Z,22.84
2018-05-09T04:37:42.714Z,22.55
2018-05-09T04:38:42.690Z,21.68
2018-05-09T04:39:42.688Z,22.16
2018-05-09T04:40:42.667Z,22.06
2018-05-09T04:41:42.614Z,20.90
2018-05-09T04:42:42.701Z,20.90
2018-05-09T04:43:42.554Z,20.71
2018-05-09T04:44:42.540Z,20.23
2018-05-09T04:45:42.504Z,19.74
2018-05-09T04:46:42.471Z,20.42
2018-05-09T04:47:42.441Z,19.74
2018-05-09T04:48:42.529Z,19.84
2018-05-09T04:49:42.391Z,19.74
2018-05-09T04:50:42.383Z,19.74
2018-05-09T04:51:42.345Z,21.10
2018-05-09T04:52:42.320Z,21.58
2018-05-09T04:53:42.302Z,21.20
2018-05-09T04:54:42.357Z,21.20
2018-05-09T04:55:42.296Z,21.58
2018-05-09T04:56:42.202Z,22.55
2018-05-09T04:57:42.179Z,25.46
2018-05-09T04:58:42.160Z,25.84
2018-05-09T04:59:42.270Z,25.46
2018-05-09T05:00:42.087Z,26.61
2018-05-09T05:01:42.068Z,27.10
2018-05-09T05:02:42.045Z,27.39
2018-05-09T05:03:42.018Z,26.90
2018-05-09T05:04:42.095Z,25.55
2018-05-09T05:05:41.958Z,25.63
2018-05-09T05:06:41.972Z,26.79
2018-05-09T05:07:41.909Z,26.79
2018-05-09T05:08:41.893Z,26.42
2018-05-09T05:09:41.951Z,26.23
2018-05-09T05:10:41.930Z,25.65
2018-05-09T05:11:41.806Z,25.65
2018-05-09T05:12:41.781Z,24.29
2018-05-09T05:13:41.767Z,24.19
2018-05-09T05:14:41.735Z,24.19
2018-05-09T05:15:41.845Z,24.29
2018-05-09T05:16:41.680Z,23.70
2018-05-09T05:17:41.647Z,23.42
2018-05-09T05:18:41.638Z,22.84
2018-05-09T05:19:41.596Z,23.03
2018-05-09T05:20:41.678Z,23.03
2018-05-09T05:21:41.557Z,22.55
2018-05-09T05:22:41.507Z,22.65
2018-05-09T05:23:41.492Z,22.65
2018-05-09T05:24:41.469Z,21.78
2018-05-09T05:25:41.441Z,21.48
2018-05-09T05:26:41.509Z,21.58
2018-05-09T05:27:41.374Z,21.10
2018-05-09T05:28:41.351Z,21.30
2018-05-09T05:29:41.340Z,21.39
2018-05-09T05:30:41.294Z,20.81
2018-05-09T05:31:41.267Z,20.23
2018-05-09T05:32:41.378Z,19.55
2018-05-09T05:33:41.227Z,19.74
2018-05-09T05:34:41.191Z,19.17
2018-05-09T05:35:41.177Z,19.17
2018-05-09T05:36:41.139Z,18.68
2018-05-09T05:37:41.231Z,18.77
2018-05-09T05:38:41.112Z,19.35
2018-05-09T05:39:41.057Z,18.87
2018-05-09T05:40:41.037Z,19.07
2018-05-09T05:41:41.005Z,18.68
2018-05-09T05:42:41.098Z,18.68
2018-05-09T05:43:40.954Z,19.17
2018-05-09T05:44:40.934Z,19.37
2018-05-09T05:45:40.902Z,18.87
2018-05-09T05:46:40.881Z,19.17
2018-05-09T05:47:40.915Z,18.68
2018-05-09T05:48:40.917Z,20.71
2018-05-09T05:49:40.794Z,21.39
2018-05-09T05:50:40.772Z,21.20
2018-05-09T05:51:40.746Z,20.92
2018-05-09T05:52:40.710Z,20.90
2018-05-09T05:53:40.794Z,20.42
2018-05-09T05:54:40.660Z,19.95
2018-05-09T05:55:40.626Z,20.43
2018-05-09T05:56:40.622Z,20.13
2018-05-09T05:57:40.571Z,20.13
2018-05-09T05:58:40.641Z,20.34
2018-05-09T05:59:40.535Z,20.62
2018-05-09T06:00:40.505Z,20.42
2018-05-09T06:01:40.494Z,20.13
2018-05-09T06:02:40.441Z,20.23
2018-05-09T06:03:40.415Z,20.23
2018-05-09T06:04:40.488Z,20.23
2018-05-09T06:05:40.366Z,20.13
2018-05-09T06:06:40.352Z,19.55
2018-05-09T06:07:40.321Z,19.84
2018-05-09T06:08:40.291Z,19.07
2018-05-09T06:09:40.263Z,18.69
2018-05-09T06:10:40.324Z,18.21
2018-05-09T06:11:40.211Z,17.81
2018-05-09T06:12:40.201Z,17.90
2018-05-09T06:13:40.153Z,17.81
2018-05-09T06:14:40.122Z,17.42
2018-05-09T06:15:40.202Z,17.32
2018-05-09T06:16:40.090Z,17.42
2018-05-09T06:17:40.064Z,17.42
2018-05-09T06:18:40.033Z,17.03
2018-05-09T06:19:39.989Z,16.74
2018-05-09T06:20:40.006Z,16.55
2018-05-09T06:21:40.040Z,16.55
2018-05-09T06:22:39.913Z,15.87
2018-05-09T06:23:39.932Z,16.16
2018-05-09T06:24:39.865Z,15.97
2018-05-09T06:25:39.831Z,15.97
2018-05-09T06:26:39.801Z,15.87
2018-05-09T06:27:39.890Z,15.68
2018-05-09T06:28:39.765Z,15.78
2018-05-09T06:29:39.725Z,15.78
2018-05-09T06:30:39.712Z,15.10
2018-05-09T06:31:39.669Z,15.19
2018-05-09T06:32:39.746Z,15.39
2018-05-09T06:33:39.632Z,15.00
2018-05-09T06:34:39.592Z,15.39
2018-05-09T06:35:39.582Z,15.10
2018-05-09T06:36:39.530Z,15.48
2018-05-09T06:37:39.647Z,15.58
2018-05-09T06:38:39.500Z,15.39
2018-05-09T06:39:39.468Z,15.29
2018-05-09T06:40:39.440Z,15.39
2018-05-09T06:41:39.429Z,15.19
2018-05-09T06:42:39.385Z,15.19
2018-05-09T06:43:39.495Z,15.39
2018-05-09T06:44:39.333Z,15.19
2018-05-09T06:45:39.292Z,15.29
2018-05-09T06:46:39.267Z,15.10
2018-05-09T06:47:39.247Z,15.39
2018-05-09T06:48:39.340Z,15.48
2018-05-09T06:49:39.183Z,15.19
2018-05-09T06:50:39.190Z,15.48
2018-05-09T06:51:39.134Z,15.48
2018-05-09T06:52:39.115Z,15.48
2018-05-09T06:53:39.200Z,15.29
2018-05-09T06:54:39.072Z,15.39
2018-05-09T06:55:39.041Z,15.78
2018-05-09T06:56:39.006Z,15.78
2018-05-09T06:57:38.999Z,15.87
2018-05-09T06:58:38.960Z,15.87
2018-05-09T06:59:39.031Z,15.68
2018-05-09T07:00:38.896Z,16.06
2018-05-09T07:01:38.882Z,16.06
2018-05-09T07:02:38.851Z,16.06
2018-05-09T07:03:38.838Z,16.16
2018-05-09T07:04:38.909Z,16.06
2018-05-09T07:05:38.789Z,16.06
2018-05-09T07:06:38.931Z,16.16
2018-05-09T07:07:38.713Z,15.96
2018-05-09T07:08:38.694Z,16.25
2018-05-09T07:09:38.774Z,16.06
2018-05-09T07:10:38.617Z,15.96
2018-05-09T07:11:38.603Z,15.67
2018-05-09T07:12:38.643Z,15.86
2018-05-09T07:13:38.655Z,15.86
2018-05-09T07:14:38.643Z,15.86
2018-05-09T07:15:38.498Z,16.25
2018-05-09T07:16:38.487Z,16.06
2018-05-09T07:17:38.457Z,16.06
2018-05-09T07:18:38.425Z,16.06
2018-05-09T07:19:38.407Z,16.06
2018-05-09T07:20:38.480Z,16.16
2018-05-09T07:21:38.330Z,16.25
2018-05-09T07:22:38.342Z,16.64
2018-05-09T07:23:38.304Z,16.64
2018-05-09T07:24:38.264Z,16.54
2018-05-09T07:25:38.247Z,16.54
2018-05-09T07:26:38.310Z,16.74
2018-05-09T07:27:38.188Z,16.83
2018-05-09T07:28:38.152Z,16.83
2018-05-09T07:29:38.120Z,16.74
2018-05-09T07:30:38.109Z,16.74
2018-05-09T07:31:38.076Z,16.83
2018-05-09T07:32:38.154Z,16.54
2018-05-09T07:33:38.030Z,16.74
2018-05-09T07:34:37.988Z,16.44
2018-05-09T07:35:37.964Z,16.74
2018-05-09T07:36:37.937Z,16.74
2018-05-09T07:37:38.007Z,16.64
2018-05-09T07:38:37.893Z,16.72
2018-05-09T07:39:37.859Z,17.11
2018-05-09T07:40:37.860Z,17.31
2018-05-09T07:41:37.832Z,17.02
2018-05-09T07:42:37.877Z,17.11
2018-05-09T07:43:37.762Z,17.21
2018-05-09T07:44:37.735Z,17.51
2018-05-09T07:45:37.700Z,17.22
2018-05-09T07:46:37.692Z,17.40
2018-05-09T07:47:37.825Z,17.60
2018-05-09T07:48:37.627Z,17.69
2018-05-09T07:49:37.602Z,17.50
2018-05-09T07:50:37.586Z,17.50
2018-05-09T07:51:37.539Z,17.02
2018-05-09T07:52:37.635Z,17.12
2018-05-09T07:53:37.498Z,17.31
2018-05-09T07:54:37.462Z,17.40
2018-05-09T07:55:37.467Z,17.40
2018-05-09T07:56:37.407Z,17.60
2018-05-09T07:57:37.391Z,17.79
2018-05-09T07:58:37.399Z,17.89
2018-05-09T07:59:37.335Z,18.08
2018-05-09T08:00:37.324Z,18.08
2018-05-09T08:01:37.265Z,18.18
2018-05-09T08:02:37.241Z,18.47
2018-05-09T08:03:37.208Z,18.08
2018-05-09T08:04:37.328Z,18.08
2018-05-09T08:05:37.178Z,18.18
2018-05-09T08:06:37.154Z,18.08
2018-05-09T08:07:37.135Z,18.18
2018-05-09T08:08:37.083Z,18.18
2018-05-09T08:09:37.051Z,17.98
2018-05-09T08:10:37.079Z,18.08
2018-05-09T08:11:36.994Z,18.27
2018-05-09T08:12:36.976Z,18.57
2018-05-09T08:13:36.965Z,18.47
2018-05-09T08:14:36.941Z,18.85
2018-05-09T08:15:36.982Z,18.57
2018-05-09T08:16:36.870Z,18.66
2018-05-09T08:17:36.843Z,18.57
2018-05-09T08:18:36.806Z,18.37
2018-05-09T08:19:36.793Z,18.76
2018-05-09T08:20:36.856Z,18.37
2018-05-09T08:21:36.733Z,18.66
2018-05-09T08:22:36.696Z,18.76
2018-05-09T08:23:36.692Z,18.95
2018-05-09T08:24:36.665Z,18.76
2018-05-09T08:25:36.756Z,19.04
2018-05-09T08:26:36.607Z,19.13
2018-05-09T08:27:36.568Z,19.13
2018-05-09T08:28:36.539Z,19.13
2018-05-09T08:29:36.519Z,19.13
2018-05-09T08:30:36.488Z,19.34
2018-05-09T08:31:36.559Z,18.85
2018-05-09T08:32:36.435Z,18.75
2018-05-09T08:33:36.411Z,18.85
2018-05-09T08:34:36.416Z,18.66
2018-05-09T08:35:36.402Z,18.85
2018-05-09T08:36:36.373Z,18.85
2018-05-09T08:37:36.373Z,19.04
2018-05-09T08:38:36.325Z,18.85
2018-05-09T08:39:36.248Z,18.85
2018-05-09T08:40:36.229Z,18.94
2018-05-09T08:41:36.190Z,18.94
2018-05-09T08:42:36.160Z,19.34
2018-05-09T08:43:36.362Z,19.33
2018-05-09T08:44:36.121Z,19.33
2018-05-09T08:45:36.100Z,19.52
2018-05-09T08:46:36.079Z,19.62
2018-05-09T08:47:36.032Z,19.52
2018-05-09T08:48:36.102Z,19.71
2018-05-09T08:49:35.983Z,19.13
2018-05-09T08:50:35.947Z,19.13
2018-05-09T08:51:35.925Z,19.52
2018-05-09T08:52:35.910Z,19.71
2018-05-09T08:53:35.964Z,19.43
2018-05-09T08:54:35.855Z,19.62
2018-05-09T08:55:35.822Z,19.62
2018-05-09T08:56:35.818Z,19.91
2018-05-09T08:57:35.758Z,19.52
2018-05-09T08:58:35.862Z,20.20
2018-05-09T08:59:35.716Z,20.10
2018-05-09T09:00:35.701Z,20.20
2018-05-09T09:01:35.670Z,19.91
2018-05-09T09:02:35.616Z,19.91
2018-05-09T09:03:35.696Z,20.39
2018-05-09T09:04:35.592Z,20.09
2018-05-09T09:05:35.542Z,20.09
2018-05-09T09:06:35.524Z,20.39
2018-05-09T09:07:35.493Z,19.91
2018-05-09T09:08:35.566Z,19.62
2018-05-09T09:09:35.429Z,19.81
2018-05-09T09:10:35.415Z,19.91
2018-05-09T09:11:35.394Z,20.29
2018-05-09T09:12:35.377Z,20.49
2018-05-09T09:13:35.339Z,20.39
2018-05-09T09:14:35.373Z,20.29
2018-05-09T09:15:35.345Z,20.48
2018-05-09T09:16:35.256Z,20.38
2018-05-09T09:17:35.212Z,20.01
2018-05-09T09:18:35.395Z,20.10
2018-05-09T09:19:35.266Z,20.01
2018-05-09T09:20:35.156Z,20.29
2018-05-09T09:21:35.116Z,20.78
2018-05-09T09:22:35.097Z,20.57
2018-05-09T09:23:35.052Z,20.86
2018-05-09T09:24:35.128Z,20.77
2018-05-09T09:25:35.008Z,20.77
2018-05-09T09:26:34.972Z,20.19
2018-05-09T09:27:34.998Z,20.96
2018-05-09T09:28:34.914Z,20.67
2018-05-09T09:29:34.949Z,21.06
2018-05-09T09:30:34.864Z,21.06
2018-05-09T09:31:34.834Z,20.67
2018-05-09T09:32:34.803Z,20.57
2018-05-09T09:33:34.790Z,20.67
2018-05-09T09:34:34.810Z,21.25
2018-05-09T09:35:34.741Z,20.96
2018-05-09T09:36:34.711Z,21.25
2018-05-09T09:37:34.670Z,21.35
2018-05-09T09:38:34.645Z,20.86
2018-05-09T09:39:34.689Z,20.86
2018-05-09T09:40:34.602Z,20.86
2018-05-09T09:41:34.616Z,21.15
2018-05-09T09:42:34.537Z,20.67
2018-05-09T09:43:34.507Z,21.35
2018-05-09T09:44:34.534Z,21.14
2018-05-09T09:45:34.449Z,21.44
2018-05-09T09:46:34.434Z,21.44
2018-05-09T09:47:34.425Z,21.06
2018-05-09T09:48:34.390Z,21.25
2018-05-09T09:49:34.339Z,20.86
2018-05-09T09:50:34.476Z,21.06
2018-05-09T09:51:34.288Z,20.86
2018-05-09T09:52:34.274Z,21.06
2018-05-09T09:53:34.245Z,21.44
2018-05-09T09:54:34.235Z,21.25
2018-05-09T09:55:34.286Z,21.44
2018-05-09T09:56:34.172Z,21.35
2018-05-09T09:57:34.162Z,21.44
2018-05-09T09:58:34.116Z,21.14
2018-05-09T09:59:34.070Z,21.62
2018-05-09T10:00:34.099Z,21.82
2018-05-09T10:01:34.082Z,21.15
2018-05-09T10:02:33.997Z,21.44
2018-05-09T10:03:34.003Z,21.53
2018-05-09T10:04:33.954Z,21.64
2018-05-09T10:05:34.031Z,21.06
2018-05-09T10:06:33.877Z,21.25
2018-05-09T10:07:33.871Z,21.35
2018-05-09T10:08:33.821Z,21.73
2018-05-09T10:09:33.809Z,21.73
2018-05-09T10:10:33.812Z,21.15
2018-05-09T10:11:33.786Z,21.73
2018-05-09T10:12:33.736Z,21.73
2018-05-09T10:13:33.704Z,21.83
2018-05-09T10:14:33.655Z,21.64
2018-05-09T10:15:33.734Z,22.12
2018-05-09T10:16:33.640Z,22.12
2018-05-09T10:17:33.576Z,21.64
2018-05-09T10:18:33.561Z,22.20
2018-05-09T10:19:33.525Z,22.41
2018-05-09T10:20:33.502Z,22.20
2018-05-09T10:21:33.588Z,22.02
2018-05-09T10:22:33.437Z,21.92
2018-05-09T10:23:33.421Z,21.92
2018-05-09T10:24:33.393Z,22.22
2018-05-09T10:25:33.381Z,22.40
2018-05-09T10:26:33.360Z,22.02
2018-05-09T10:27:33.416Z,22.02
2018-05-09T10:28:33.284Z,22.11
2018-05-09T10:29:33.253Z,22.30
2018-05-09T10:30:33.222Z,22.22
2018-05-09T10:31:33.238Z,22.12
2018-05-09T10:32:33.275Z,22.20
2018-05-09T10:33:33.144Z,22.50
2018-05-09T10:34:33.113Z,22.22
2018-05-09T10:35:33.096Z,22.40
2018-05-09T10:36:33.070Z,22.50
2018-05-09T10:37:33.135Z,22.20
2018-05-09T10:38:33.009Z,22.30
2018-05-09T10:39:32.975Z,22.50
2018-05-09T10:40:32.939Z,22.20
2018-05-09T10:41:32.909Z,22.41
2018-05-09T10:42:32.943Z,22.20
2018-05-09T10:43:32.916Z,22.41
2018-05-09T10:44:32.846Z,22.30
2018-05-09T10:45:32.805Z,22.40
2018-05-09T10:46:32.788Z,22.59
2018-05-09T10:47:32.873Z,22.31
2018-05-09T10:48:32.720Z,22.80
2018-05-09T10:49:32.707Z,22.40
2018-05-09T10:50:32.661Z,22.60
2018-05-09T10:51:32.643Z,22.70
2018-05-09T10:52:32.678Z,22.99
2018-05-09T10:53:32.633Z,22.70
2018-05-09T10:54:32.616Z,22.80
2018-05-09T10:55:32.533Z,22.50
2018-05-09T10:56:32.528Z,22.80
2018-05-09T10:57:32.480Z,22.89
2018-05-09T10:58:32.477Z,22.99
2018-05-09T10:59:32.541Z,22.70
2018-05-09T11:00:32.394Z,22.89
2018-05-09T11:01:32.364Z,22.80
2018-05-09T11:02:32.339Z,22.99
2018-05-09T11:03:32.328Z,22.89
2018-05-09T11:04:32.293Z,22.89
2018-05-09T11:05:32.354Z,22.89
2018-05-09T11:06:32.227Z,22.89
2018-05-09T11:07:32.212Z,22.89
2018-05-09T11:08:32.184Z,22.70
2018-05-09T11:09:32.144Z,22.99
2018-05-09T11:10:32.231Z,22.69
2018-05-09T11:11:32.082Z,23.28
2018-05-09T11:12:32.062Z,22.99
2018-05-09T11:13:32.037Z,23.17
2018-05-09T11:14:32.007Z,22.88
2018-05-09T11:15:32.099Z,22.78
2018-05-09T11:16:31.953Z,22.99
2018-05-09T11:17:32.032Z,22.99
2018-05-09T11:18:31.942Z,22.70
2018-05-09T11:19:31.941Z,22.80
2018-05-09T11:20:31.945Z,23.36
2018-05-09T11:21:31.826Z,23.17
2018-05-09T11:22:31.788Z,23.17
2018-05-09T11:23:31.757Z,23.36
2018-05-09T11:24:31.785Z,23.28
2018-05-09T11:25:31.699Z,23.27
2018-05-09T11:26:31.780Z,23.27
2018-05-09T11:27:31.660Z,23.38
2018-05-09T11:28:31.667Z,23.36
2018-05-09T11:29:31.623Z,23.18
2018-05-09T11:30:31.571Z,23.18
2018-05-09T11:31:31.627Z,23.08
2018-05-09T11:32:31.619Z,23.18
2018-05-09T11:33:31.481Z,22.99
2018-05-09T11:34:31.452Z,23.18
2018-05-09T11:35:31.438Z,23.08
2018-05-09T11:36:31.419Z,23.18
2018-05-09T11:37:31.475Z,22.99
2018-05-09T11:38:31.471Z,23.18
2018-05-09T11:39:31.325Z,23.18
2018-05-09T11:40:31.287Z,23.57
2018-05-09T11:41:31.295Z,23.28
2018-05-09T11:42:31.281Z,23.28
2018-05-09T11:43:31.323Z,23.18
2018-05-09T11:44:31.203Z,23.47
2018-05-09T11:45:31.177Z,23.76
2018-05-09T11:46:31.125Z,23.57
2018-05-09T11:47:31.112Z,23.57
2018-05-09T11:48:31.171Z,23.57
2018-05-09T11:49:31.052Z,23.86
2018-05-09T11:50:31.026Z,23.47
2018-05-09T11:51:30.993Z,23.19
2018-05-09T11:52:30.974Z,22.61
2018-05-09T11:53:31.053Z,23.10
2018-05-09T11:54:30.918Z,23.49
2018-05-09T11:55:30.894Z,23.00
2018-05-09T11:56:30.885Z,23.11
2018-05-09T11:57:30.838Z,23.79
2018-05-09T11:58:30.822Z,24.56
2018-05-09T11:59:30.880Z,25.62
2018-05-09T12:00:30.762Z,26.03
2018-05-09T12:01:30.742Z,27.19
2018-05-09T12:02:30.714Z,28.15
2018-05-09T12:03:30.674Z,29.90
2018-05-09T12:04:30.698Z,30.96
2018-05-09T12:05:30.671Z,31.83
2018-05-09T12:06:30.688Z,33.09
2018-05-09T12:07:30.557Z,34.92
2018-05-09T12:08:30.545Z,38.71
2018-05-09T12:09:30.474Z,43.65
2018-05-09T12:10:30.594Z,47.52
2018-05-09T12:11:30.563Z,50.14
2018-05-09T12:12:30.434Z,49.95
2018-05-09T12:13:30.399Z,52.78
2018-05-09T12:14:30.407Z,58.20
2018-05-09T12:15:30.334Z,59.49
2018-05-09T12:16:30.319Z,66.75
2018-05-09T12:17:30.385Z,75.42
2018-05-09T12:18:30.254Z,77.06
2018-05-09T12:19:30.310Z,80.88
2018-05-09T12:20:30.204Z,83.70
2018-05-09T12:21:30.191Z,86.36
2018-05-09T12:22:30.251Z,82.62
2018-05-09T12:23:30.142Z,90.09
2018-05-09T12:24:30.150Z,85.96
2018-05-09T12:25:30.076Z,94.46
2018-05-09T12:26:30.036Z,98.44
2018-05-09T12:27:30.121Z,98.15
2018-05-09T12:28:29.984Z,97.81
2018-05-09T12:29:29.979Z,98.34
2018-05-09T12:30:29.952Z,97.37
2018-05-09T12:31:29.923Z,95.18
2018-05-09T12:32:30.012Z,96.30
2018-05-09T12:33:29.904Z,99.07
2018-05-09T12:34:29.864Z,99.99
2018-05-09T12:35:29.843Z,99.99
2018-05-09T12:36:29.886Z,99.99
2018-05-09T12:37:29.781Z,99.99
2018-05-09T12:38:29.851Z,99.99
2018-05-09T12:39:29.773Z,99.99
2018-05-09T12:40:29.705Z,99.99
2018-05-09T12:41:29.671Z,99.99
2018-05-09T12:42:29.727Z,99.99
2018-05-09T12:43:29.788Z,99.99
2018-05-09T12:44:29.607Z,99.99
2018-05-09T12:45:29.570Z,99.99
2018-05-09T12:46:29.557Z,99.99
2018-05-09T12:47:29.520Z,99.99
2018-05-09T12:48:29.697Z,99.99
2018-05-09T12:49:29.487Z,99.99
2018-05-09T12:50:29.467Z,99.99
2018-05-09T12:51:29.438Z,99.99
2018-05-09T12:52:29.413Z,99.99